createdAt,value
2017-06-28T00:01:53.595Z,25.24
2017-06-28T00:05:54.208Z,25.43
2017-06-28T00:09:54.741Z,25.14
2017-06-28T00:13:55.322Z,25.34
2017-06-28T00:17:55.949Z,25.36
2017-06-28T00:21:56.558Z,25.37
2017-06-28T00:24:29.474Z,25.09
2017-06-28T00:28:21.617Z,25.58
2017-06-28T00:33:58.371Z,25.74
2017-06-28T00:37:58.933Z,25.85
2017-06-28T00:40:31.362Z,25.93
2017-06-28T00:44:31.985Z,25.74
2017-06-28T00:46:47.989Z,25.77
2017-06-28T00:49:12.489Z,26.04
2017-06-28T00:51:28.479Z,26.18
2017-06-28T00:53:29.931Z,26.03
2017-06-28T00:55:54.423Z,25.95
2017-06-28T00:58:18.919Z,25.71
2017-06-28T01:00:43.408Z,25.31
2017-06-28T01:02:19.237Z,24.89
2017-06-28T01:04:43.650Z,24.48
2017-06-28T01:07:08.037Z,24.43
2017-06-28T01:09:32.526Z,24.5
2017-06-28T01:11:57.035Z,24.36
2017-06-28T01:14:04.472Z,24.58
2017-06-28T01:16:28.091Z,24.36
2017-06-28T01:18:52.474Z,24.28
2017-06-28T01:21:08.474Z,24.04
2017-06-28T01:23:34.903Z,24.09
2017-06-28T01:26:00.323Z,23.96
2017-06-28T01:28:31.669Z,23.47
2017-06-28T01:30:33.583Z,23.14
2017-06-28T01:32:59.958Z,23.18
2017-06-28T01:35:24.342Z,23.13
2017-06-28T01:37:48.641Z,22.61
2017-06-28T01:40:04.531Z,21.99
2017-06-28T01:42:28.821Z,21.81
2017-06-28T01:44:53.102Z,21.65
2017-06-28T01:47:17.387Z,21.41
2017-06-28T01:49:41.683Z,21.6
2017-06-28T01:52:05.969Z,21.89
2017-06-28T01:54:07.391Z,21.91
2017-06-28T01:56:31.598Z,22.1
2017-06-28T01:58:55.784Z,22.37
2017-06-28T02:01:19.965Z,22.28
2017-06-28T02:03:44.156Z,22.41
2017-06-28T02:05:45.556Z,22.55
2017-06-28T02:08:09.791Z,22.53
2017-06-28T02:10:33.978Z,22.44
2017-06-28T02:12:41.367Z,22.46
2017-06-28T02:15:05.546Z,22.51
2017-06-28T02:17:21.331Z,22.52
2017-06-28T02:19:37.121Z,22.37
2017-06-28T02:21:52.911Z,22.41
2017-06-28T02:24:17.051Z,22.33
2017-06-28T02:26:41.282Z,22.3
2017-06-28T02:29:05.468Z,22.34
2017-06-28T02:31:29.646Z,22.43
2017-06-28T02:33:53.831Z,22.52
2017-06-28T02:36:18.020Z,22.51
2017-06-28T02:38:42.326Z,22.53
2017-06-28T02:40:43.883Z,22.51
2017-06-28T02:42:51.246Z,22.26
2017-06-28T02:44:52.610Z,22.51
2017-06-28T02:47:16.879Z,22.37
2017-06-28T02:49:41.066Z,22.46
2017-06-28T02:52:05.354Z,22.71
2017-06-28T02:54:29.536Z,22.76
2017-06-28T02:56:45.325Z,22.91
2017-06-28T02:59:09.615Z,22.96
2017-06-28T03:01:25.399Z,22.91
2017-06-28T03:03:49.582Z,22.91
2017-06-28T03:06:13.869Z,23.18
2017-06-28T03:08:29.654Z,23.17
2017-06-28T18:41:18.346Z,28.46
2017-06-28T18:43:43.122Z,28.33
2017-06-28T18:46:07.821Z,28.5
2017-06-28T18:48:32.511Z,28.47
2017-06-28T18:50:58.247Z,28.53
2017-06-28T18:53:14.532Z,28.56
2017-06-28T18:55:39.171Z,28.52
2017-06-28T18:58:03.839Z,28.52
2017-06-28T19:00:28.523Z,28.53
2017-06-28T19:02:54.243Z,28.47
2017-06-28T19:05:18.940Z,28.5
2017-06-28T19:07:43.646Z,28.52
2017-06-28T19:10:08.640Z,28.41
2017-06-28T19:12:33.336Z,28.3
2017-06-28T19:14:58.031Z,28.22
2017-06-28T19:17:22.731Z,28.23
2017-06-28T19:19:47.428Z,28.28
2017-06-28T19:22:12.121Z,28.35
2017-06-28T19:24:36.823Z,28.43
2017-06-28T19:26:38.400Z,28.5
2017-06-28T19:29:03.067Z,28.2
2017-06-28T19:31:27.754Z,27.94
2017-06-28T19:33:52.353Z,28.01
2017-06-28T19:36:08.547Z,28.13
2017-06-28T19:38:33.252Z,28.23
2017-06-28T19:40:57.941Z,28.12
2017-06-28T19:43:22.543Z,27.95
2017-06-28T19:45:38.747Z,27.95
2017-06-28T19:48:03.432Z,27.88
2017-06-28T19:50:28.136Z,28.04
2017-06-28T19:52:52.829Z,28.04
2017-06-28T19:55:17.412Z,28.16
2017-06-28T19:57:42.017Z,28.12
2017-06-28T19:59:58.214Z,27.9
2017-06-28T20:02:22.909Z,27.88
2017-06-28T20:04:47.598Z,27.88
2017-06-28T20:07:12.319Z,27.83
2017-06-28T20:09:37.002Z,27.82
2017-06-28T20:12:01.597Z,27.41
2017-06-28T20:14:03.099Z,27.57
2017-06-28T20:16:27.752Z,27.48
2017-06-28T20:18:52.338Z,27.52
2017-06-28T20:21:16.932Z,27.44
2017-06-28T20:23:18.416Z,27.2
2017-06-28T20:25:43.078Z,27.16
2017-06-28T20:28:07.673Z,27.03
2017-06-28T20:30:23.866Z,26.96
2017-06-28T20:32:48.463Z,27.03
2017-06-28T20:35:13.057Z,27.08
2017-06-28T20:37:37.648Z,27.08
2017-06-28T20:40:05.523Z,27.43
2017-06-28T20:42:30.118Z,27.48
2017-06-28T20:44:54.813Z,27.22
2017-06-28T20:47:10.906Z,26.73
2017-06-28T20:49:35.500Z,26.68
2017-06-28T20:51:51.596Z,26.1
2017-06-28T20:54:01.657Z,26.19
2017-06-28T20:56:26.138Z,25.68
2017-06-28T20:58:50.631Z,25.52
2017-06-28T21:01:15.127Z,25.43
2017-06-28T21:03:39.604Z,25.04
2017-06-28T21:06:04.106Z,24.62
2017-06-28T21:08:28.601Z,24.36
2017-06-28T21:10:52.986Z,24.31
2017-06-28T21:13:08.981Z,24.55
2017-06-28T21:15:33.466Z,24.44
2017-06-28T21:17:57.868Z,24.55
2017-06-28T21:20:22.250Z,24.29
2017-06-28T21:22:38.232Z,24.11
2017-06-28T21:25:02.632Z,24.1
2017-06-28T21:27:27.021Z,24.07
2017-06-28T21:29:37.027Z,24.29
2017-06-28T21:32:01.458Z,24.28
2017-06-28T21:34:11.455Z,24.14
2017-06-28T21:36:35.909Z,23.92
2017-06-28T21:39:00.296Z,23.99
2017-06-28T21:41:24.690Z,23.81
2017-06-28T21:43:49.075Z,23.54
2017-06-28T21:45:50.513Z,23.54
2017-06-28T21:48:14.916Z,23.7
2017-06-28T21:50:39.309Z,23.77
2017-06-28T21:53:03.688Z,23.77
2017-06-28T21:55:28.083Z,23.81
2017-06-28T21:57:52.469Z,23.58
2017-06-28T22:00:16.861Z,23.34
2017-06-28T22:02:41.146Z,23.44
2017-06-28T22:05:05.434Z,23.51
2017-06-28T22:07:21.322Z,23.29
2017-06-28T22:09:45.709Z,23.48
2017-06-28T22:12:10.105Z,23.33
2017-06-28T22:14:34.390Z,23.04
2017-06-28T22:16:58.675Z,23.33
2017-06-28T22:19:22.976Z,23.17
2017-06-28T22:21:47.255Z,23.13
2017-06-28T22:24:11.542Z,23.1
2017-06-28T22:26:35.818Z,23.1
2017-06-28T22:29:00.110Z,23.25
2017-06-28T22:31:24.396Z,23.21
2017-06-28T22:33:48.676Z,23.28
2017-06-28T22:36:04.462Z,23.16
2017-06-28T22:38:28.755Z,23.01
2017-06-28T22:40:53.045Z,22.65
2017-06-28T22:43:17.334Z,22.76
2017-06-28T22:45:41.618Z,22.61
2017-06-28T22:47:57.508Z,22.89
2017-06-28T22:50:21.792Z,22.89
2017-06-28T22:52:46.088Z,22.55
2017-06-28T22:55:10.368Z,22.52
2017-06-28T22:57:26.155Z,22.59
2017-06-28T22:59:50.339Z,22.51
2017-06-28T23:02:14.625Z,22.37
2017-06-28T23:04:38.913Z,22.19
2017-06-28T23:06:54.699Z,22
2017-06-28T23:09:18.987Z,22.14
2017-06-28T23:11:43.170Z,22.15
2017-06-28T23:14:07.459Z,22.34
2017-06-28T23:16:31.644Z,22.26
2017-06-28T23:18:55.823Z,22.07
2017-06-28T23:21:20.112Z,22.01
2017-06-28T23:23:44.300Z,22.06
2017-06-28T23:26:08.485Z,22.06
2017-06-28T23:28:24.270Z,22.41
2017-06-28T23:30:48.457Z,22.22
2017-06-28T23:33:12.639Z,22.38
2017-06-28T23:35:36.830Z,22.25
2017-06-28T23:37:46.775Z,22.4
2017-06-28T23:39:45.769Z,22.37
2017-06-28T23:42:09.953Z,22.21
2017-06-28T23:44:25.656Z,22.33
2017-06-28T23:46:35.612Z,22.23
2017-06-28T23:48:51.377Z,22.31
2017-06-28T23:51:15.556Z,22.14
2017-06-28T23:53:39.743Z,22.18
2017-06-28T23:55:55.533Z,22.25
2017-06-28T23:58:20.534Z,22.26
